Needmore, Indiana
Current Conditions -  °F | °C
As of 9:40 AM on Monday 26 Jan 2015 (Local Time) from KBMG Reporting Station
Overcast Overcast  
Wind Chill: 19°   Ceiling: 1400
Heat Index: 25°   Visibility: 10mi
Dew Point: 20°   Wind: 5mph
Humidity: 81%   Direction: 300°WNW
Pressure: 29.96"   Gusts: NA
Location:  38.8737°N, 86.4563°W
Report Text: KBMG 261440Z 30004KT 10SM OVC014 M04/M07 A2996 RMK AO2 T10391067
Loading
Personal Weather Stations






























Interactive Weather Map New forecast layout! Learn more

10-Day Weather Forecast

Advertisements
Track Severe Weather on mobile